Time;durP1;ratioP1;P1;durP2;ratioP2;P2;SDS_P1;SDS_P2;PMS_P1;PMS_P2;Temp;Humidity;BMP_temperature;BMP_pressure;BME280_temperature;BME280_humidity;BME280_pressure;Samples;Min_cycle;Max_cycle;Signal;HPM_P1;HPM_P2
2023/04/29 00:01:07;;;;;;;32.37;28.90;;;11.10;99.90;;;;;;5060663;28;20220;-53
2023/04/29 00:03:32;;;;;;;30.70;27.80;;;11.10;99.90;;;;;;5060592;28;20191;-47
2023/04/29 00:05:58;;;;;;;30.23;27.20;;;11.10;99.90;;;;;;5059856;28;20185;-47
2023/04/29 00:08:25;;;;;;;31.20;28.10;;;11.10;99.90;;;;;;5060135;28;20198;-48
2023/04/29 00:10:50;;;;;;;32.37;29.17;;;11.10;99.90;;;;;;5060547;28;20418;-50
2023/04/29 00:13:16;;;;;;;31.23;28.07;;;11.10;99.90;;;;;;5060152;28;21034;-47
2023/04/29 00:15:42;;;;;;;31.10;28.10;;;11.10;99.90;;;;;;5058860;28;21183;-50
2023/04/29 00:18:08;;;;;;;30.97;28.07;;;11.10;99.90;;;;;;5040522;28;20458;-52
2023/04/29 00:20:35;;;;;;;31.43;28.33;;;11.10;99.90;;;;;;5059785;28;20427;-47
2023/04/29 00:23:00;;;;;;;29.73;26.83;;;11.10;99.90;;;;;;5060362;28;20459;-49
2023/04/29 00:25:26;;;;;;;31.90;28.80;;;11.10;99.90;;;;;;5060064;28;20444;-52
2023/04/29 00:27:52;;;;;;;31.30;28.40;;;11.10;99.90;;;;;;5060244;28;20230;-49
2023/04/29 00:30:17;;;;;;;33.10;29.90;;;11.20;99.90;;;;;;5059365;28;20744;-49
2023/04/29 00:32:43;;;;;;;30.80;27.70;;;11.20;99.90;;;;;;5060187;28;21071;-46
2023/04/29 00:35:09;;;;;;;30.73;27.73;;;11.20;99.90;;;;;;5060559;28;20224;-49
2023/04/29 00:37:35;;;;;;;30.97;27.97;;;11.20;99.90;;;;;;5058828;28;20466;-49
2023/04/29 00:40:01;;;;;;;32.80;29.70;;;11.20;99.90;;;;;;5059813;28;20514;-50
2023/04/29 00:42:28;;;;;;;31.30;28.40;;;11.20;99.90;;;;;;5060186;28;20180;-50
2023/04/29 00:44:53;;;;;;;32.23;29.10;;;11.20;99.90;;;;;;5060165;28;20191;-47
2023/04/29 00:47:19;;;;;;;30.77;27.87;;;11.20;99.90;;;;;;5059966;28;20416;-48
2023/04/29 00:49:45;;;;;;;30.83;27.90;;;11.30;99.90;;;;;;5060619;28;20891;-49
2023/04/29 00:52:12;;;;;;;31.13;28.03;;;11.30;99.90;;;;;;5059786;28;20192;-50
2023/04/29 00:54:38;;;;;;;31.40;28.00;;;11.30;99.90;;;;;;5060304;28;20204;-47
2023/04/29 00:57:05;;;;;;;31.37;28.03;;;11.30;99.90;;;;;;5059873;28;20746;-50
2023/04/29 00:59:32;;;;;;;30.10;27.13;;;11.30;99.90;;;;;;5059804;28;20457;-50
2023/04/29 01:02:02;;;;;;;29.97;27.00;;;11.30;99.90;;;;;;5059993;28;20510;-46
2023/04/29 01:04:27;;;;;;;31.20;28.03;;;11.30;99.90;;;;;;5060166;28;20410;-50
2023/04/29 01:07:14;;;;;;;30.50;27.57;;;11.40;99.90;;;;;;5059436;28;21374;-51
2023/04/29 01:09:49;;;;;;;32.17;28.77;;;11.30;99.90;;;;;;5059561;28;20837;-44
2023/04/29 01:12:36;;;;;;;30.23;27.37;;;11.30;99.90;;;;;;5059213;28;20469;-46
2023/04/29 01:15:08;;;;;;;30.67;27.53;;;11.30;99.90;;;;;;5059908;28;20466;-49
2023/04/29 01:17:40;;;;;;;31.63;27.87;;;11.40;99.90;;;;;;5060042;28;20933;-47
2023/04/29 01:20:08;;;;;;;28.77;25.77;;;11.40;99.90;;;;;;5057895;28;20438;-48
2023/04/29 01:22:34;;;;;;;30.73;27.67;;;11.40;99.90;;;;;;5059415;28;20466;-46
2023/04/29 01:25:00;;;;;;;28.53;25.53;;;11.40;99.90;;;;;;5058973;28;20453;-47
2023/04/29 01:27:47;;;;;;;29.77;26.77;;;11.40;99.90;;;;;;5058198;28;20230;-49
2023/04/29 01:30:25;;;;;;;29.17;26.13;;;11.40;99.90;;;;;;5041062;28;20435;-47
2023/04/29 01:33:15;;;;;;;28.20;25.50;;;11.40;99.90;;;;;;5062053;28;20480;-49
2023/04/29 01:36:04;;;;;;;30.10;27.10;;;11.40;99.90;;;;;;5062081;28;20505;-48
2023/04/29 01:38:43;;;;;;;30.03;26.53;;;11.50;99.90;;;;;;5063038;28;20983;-45
2023/04/29 01:41:17;;;;;;;29.23;26.30;;;11.50;99.90;;;;;;5062935;28;20449;-48
2023/04/29 01:43:48;;;;;;;30.03;27.10;;;11.50;99.90;;;;;;5062955;28;20504;-51
2023/04/29 01:46:18;;;;;;;31.00;27.70;;;11.50;99.90;;;;;;5062691;28;20415;-48
2023/04/29 01:48:43;;;;;;;32.27;28.73;;;11.50;99.90;;;;;;5062992;28;20461;-46
2023/04/29 01:51:10;;;;;;;30.40;27.23;;;11.50;99.90;;;;;;5062796;28;20545;-48
2023/04/29 01:53:35;;;;;;;30.53;27.50;;;11.50;99.90;;;;;;5062701;28;20184;-50
2023/04/29 01:56:01;;;;;;;30.20;27.10;;;11.40;99.90;;;;;;5062333;28;20833;-49
2023/04/29 01:58:27;;;;;;;30.13;27.13;;;11.40;99.90;;;;;;5062764;28;20233;-48
2023/04/29 02:00:53;;;;;;;31.97;28.67;;;11.30;99.90;;;;;;5061745;28;20192;-49
2023/04/29 02:03:19;;;;;;;33.00;27.33;;;11.30;99.90;;;;;;5044575;28;20199;-49
2023/04/29 02:05:45;;;;;;;30.13;27.20;;;11.30;99.90;;;;;;5063044;28;20422;-50
2023/04/29 02:08:11;;;;;;;30.57;27.27;;;11.30;99.90;;;;;;5062208;28;20194;-45
2023/04/29 02:10:37;;;;;;;30.40;27.10;;;11.30;99.90;;;;;;5062612;28;20184;-51
2023/04/29 02:13:03;;;;;;;30.80;27.70;;;11.30;99.90;;;;;;5062757;28;20426;-48
2023/04/29 02:15:28;;;;;;;29.73;26.93;;;11.30;99.90;;;;;;5062336;28;20618;-49
2023/04/29 02:17:54;;;;;;;30.70;27.50;;;11.20;99.90;;;;;;5061785;28;20175;-45
2023/04/29 02:20:20;;;;;;;29.90;27.10;;;11.20;99.90;;;;;;5062640;28;20212;-48
2023/04/29 02:22:46;;;;;;;31.63;28.23;;;11.20;99.90;;;;;;5062502;28;20230;-47
2023/04/29 02:25:11;;;;;;;32.07;28.67;;;11.20;99.90;;;;;;5062771;28;21177;-47
2023/04/29 02:27:37;;;;;;;29.13;26.17;;;11.20;99.90;;;;;;5061980;28;20199;-48
2023/04/29 02:30:03;;;;;;;30.17;27.07;;;11.10;99.90;;;;;;5061540;28;20192;-48
2023/04/29 02:32:29;;;;;;;32.90;29.43;;;11.10;99.90;;;;;;5062480;28;20200;-49
2023/04/29 02:34:55;;;;;;;32.63;29.17;;;11.10;99.90;;;;;;5062312;28;20544;-47
2023/04/29 02:37:21;;;;;;;32.37;28.90;;;11.10;99.90;;;;;;5062383;28;20533;-48
2023/04/29 02:39:46;;;;;;;30.63;27.47;;;11.00;99.90;;;;;;5062076;28;21240;-49
2023/04/29 02:42:12;;;;;;;33.50;29.90;;;11.00;99.90;;;;;;5060860;28;20464;-47
2023/04/29 02:44:38;;;;;;;31.47;28.37;;;11.00;99.90;;;;;;5062489;28;20700;-46
2023/04/29 02:47:04;;;;;;;32.63;29.33;;;11.00;99.90;;;;;;5061879;28;20184;-48
2023/04/29 02:49:30;;;;;;;33.50;27.60;;;11.00;99.90;;;;;;5061696;28;21169;-50
2023/04/29 02:51:57;;;;;;;30.70;27.70;;;10.90;99.90;;;;;;5060852;28;20528;-50
2023/04/29 02:54:22;;;;;;;31.33;28.00;;;11.00;99.90;;;;;;5061733;28;20188;-50
2023/04/29 02:56:48;;;;;;;31.33;28.20;;;11.00;99.90;;;;;;5062018;28;20831;-51
2023/04/29 02:59:14;;;;;;;31.93;28.53;;;11.00;99.90;;;;;;5060664;28;20188;-46
2023/04/29 03:01:40;;;;;;;32.07;28.83;;;11.00;99.90;;;;;;5062395;28;20646;-48
2023/04/29 03:04:05;;;;;;;30.80;27.80;;;11.00;99.90;;;;;;5061610;28;20657;-51
2023/04/29 03:06:31;;;;;;;29.83;26.77;;;11.00;99.90;;;;;;5042858;28;20447;-47
2023/04/29 03:08:57;;;;;;;29.70;26.50;;;11.00;99.90;;;;;;5061924;28;20203;-50
2023/04/29 03:11:25;;;;;;;29.07;26.17;;;11.00;99.90;;;;;;5061364;28;20187;-50
2023/04/29 03:13:51;;;;;;;30.97;27.67;;;11.10;99.90;;;;;;5061278;28;20192;-45
2023/04/29 03:16:16;;;;;;;29.03;26.17;;;11.10;99.90;;;;;;5060446;28;20477;-47
2023/04/29 03:18:45;;;;;;;29.60;26.47;;;11.10;99.90;;;;;;5061164;28;20181;-49
2023/04/29 03:21:10;;;;;;;28.10;25.40;;;11.20;99.90;;;;;;5061028;28;20185;-49
2023/04/29 03:23:38;;;;;;;29.93;26.80;;;11.20;99.90;;;;;;5061419;28;20490;-50
2023/04/29 03:26:04;;;;;;;28.00;25.30;;;11.20;99.90;;;;;;5059409;28;20191;-52
2023/04/29 03:28:29;;;;;;;27.77;25.17;;;11.20;99.90;;;;;;5059766;28;20447;-50
2023/04/29 03:30:56;;;;;;;26.73;24.10;;;11.20;99.90;;;;;;5042898;28;20192;-46
2023/04/29 03:33:21;;;;;;;25.63;23.20;;;11.20;99.90;;;;;;5060871;28;20669;-50
2023/04/29 03:35:47;;;;;;;28.03;25.33;;;11.20;99.90;;;;;;5060735;28;20462;-49
2023/04/29 03:38:12;;;;;;;26.43;23.97;;;11.20;99.90;;;;;;5060610;28;21116;-50
2023/04/29 03:40:39;;;;;;;26.80;24.17;;;11.30;99.90;;;;;;5060080;28;20261;-50
2023/04/29 03:43:05;;;;;;;29.33;25.67;;;11.20;99.90;;;;;;5061458;28;20191;-51
2023/04/29 03:45:31;;;;;;;25.60;23.07;;;11.20;99.90;;;;;;5060266;28;20463;-49
2023/04/29 03:47:57;;;;;;;27.67;24.73;;;11.20;99.90;;;;;;5042474;28;20458;-53
2023/04/29 03:50:23;;;;;;;24.40;22.13;;;11.20;99.90;;;;;;5060795;28;20427;-49
2023/04/29 03:52:48;;;;;;;27.03;24.13;;;11.30;99.90;;;;;;5060251;28;20634;-52
2023/04/29 03:55:14;;;;;;;26.50;23.80;;;11.30;99.90;;;;;;5059988;28;20223;-47
2023/04/29 03:57:40;;;;;;;22.90;20.83;;;11.30;99.90;;;;;;5060703;28;20181;-52
2023/04/29 04:00:06;;;;;;;24.67;22.47;;;11.30;99.90;;;;;;5060726;28;20181;-52
2023/04/29 04:02:32;;;;;;;24.60;22.10;;;11.30;99.90;;;;;;5060343;28;20183;-51
2023/04/29 04:04:58;;;;;;;24.47;22.00;;;11.30;99.90;;;;;;5060101;28;21293;-51
2023/04/29 04:07:23;;;;;;;25.40;23.13;;;11.30;99.90;;;;;;5060604;28;20270;-47
2023/04/29 04:09:49;;;;;;;25.17;22.97;;;11.40;99.90;;;;;;5060246;28;20209;-53
2023/04/29 04:12:14;;;;;;;23.70;21.67;;;11.30;99.90;;;;;;5060318;28;20264;-45
2023/04/29 04:14:41;;;;;;;22.80;20.90;;;11.30;99.90;;;;;;5060490;28;20677;-50
2023/04/29 04:17:06;;;;;;;23.20;21.30;;;11.40;99.90;;;;;;5059340;28;20218;-50
2023/04/29 04:19:32;;;;;;;23.03;20.97;;;11.40;99.90;;;;;;5060639;28;20427;-50
2023/04/29 04:21:58;;;;;;;22.90;20.90;;;11.40;99.90;;;;;;5059962;28;20290;-49
2023/04/29 04:24:24;;;;;;;22.70;20.80;;;11.40;99.90;;;;;;5059340;28;20185;-50
2023/04/29 04:26:50;;;;;;;23.00;20.63;;;11.50;99.90;;;;;;5060731;28;20232;-51
2023/04/29 04:29:16;;;;;;;23.27;21.17;;;11.50;99.90;;;;;;5060149;28;20524;-49
2023/04/29 04:31:42;;;;;;;21.93;20.03;;;11.50;99.90;;;;;;5060514;28;20179;-53
2023/04/29 04:34:07;;;;;;;23.23;21.23;;;11.60;99.90;;;;;;5059670;28;20204;-48
2023/04/29 04:36:33;;;;;;;21.90;20.17;;;11.60;99.90;;;;;;5060200;28;20317;-47
2023/04/29 04:38:58;;;;;;;22.80;20.77;;;11.70;99.90;;;;;;5060091;28;20212;-51
2023/04/29 04:41:24;;;;;;;21.93;20.00;;;11.70;99.90;;;;;;5059621;28;20185;-53
2023/04/29 04:43:50;;;;;;;23.10;21.00;;;11.80;99.90;;;;;;5060325;28;20184;-53
2023/04/29 04:46:16;;;;;;;22.17;20.17;;;11.80;99.90;;;;;;5060035;28;20876;-49
2023/04/29 04:48:42;;;;;;;22.93;20.83;;;11.80;99.90;;;;;;5060189;28;20263;-51
2023/04/29 04:51:12;;;;;;;21.87;20.00;;;11.90;99.90;;;;;;5059901;28;21206;-53
2023/04/29 04:53:38;;;;;;;21.93;19.77;;;11.90;99.90;;;;;;5059487;28;21481;-49
2023/04/29 04:56:05;;;;;;;22.50;20.60;;;12.00;99.90;;;;;;5059239;28;21317;-50
2023/04/29 04:58:31;;;;;;;21.00;19.40;;;12.00;99.90;;;;;;5060549;28;20869;-49
2023/04/29 05:00:58;;;;;;;21.77;19.87;;;12.10;99.90;;;;;;5058483;28;20442;-49
2023/04/29 05:03:23;;;;;;;22.33;20.40;;;12.10;99.90;;;;;;5058958;28;21054;-50
2023/04/29 05:05:57;;;;;;;21.57;19.67;;;12.10;99.90;;;;;;5062588;28;20435;-48
2023/04/29 05:08:22;;;;;;;22.23;20.40;;;12.10;99.90;;;;;;5063671;28;20212;-52
2023/04/29 05:10:48;;;;;;;22.53;20.70;;;12.20;99.90;;;;;;5063571;28;20454;-50
2023/04/29 05:13:13;;;;;;;21.43;19.60;;;12.10;99.90;;;;;;5062828;28;20208;-46
2023/04/29 05:15:39;;;;;;;22.13;20.27;;;12.10;99.90;;;;;;5063836;28;20208;-54
2023/04/29 05:18:05;;;;;;;21.83;19.93;;;12.10;99.90;;;;;;5062779;28;20180;-52
2023/04/29 05:20:30;;;;;;;21.27;19.40;;;12.10;99.90;;;;;;5063158;28;20254;-53
2023/04/29 05:22:56;;;;;;;22.23;20.43;;;12.20;99.90;;;;;;5061924;28;20233;-50
2023/04/29 05:25:21;;;;;;;21.37;19.47;;;12.20;99.90;;;;;;5063141;28;20568;-51
2023/04/29 05:27:47;;;;;;;20.07;18.47;;;12.20;99.90;;;;;;5063549;28;20279;-52
2023/04/29 05:30:13;;;;;;;20.70;18.90;;;12.30;99.90;;;;;;5063139;28;20238;-49
2023/04/29 05:32:39;;;;;;;20.60;19.00;;;12.30;99.90;;;;;;5062193;28;20554;-53
2023/04/29 05:35:05;;;;;;;19.47;18.00;;;12.30;99.90;;;;;;5062241;28;20201;-50
2023/04/29 05:37:30;;;;;;;19.47;18.07;;;12.30;99.90;;;;;;5062784;28;21565;-52
2023/04/29 05:39:56;;;;;;;20.73;19.03;;;12.30;99.90;;;;;;5063085;28;20193;-53
2023/04/29 05:42:23;;;;;;;20.53;18.93;;;12.30;99.90;;;;;;5062419;28;20181;-48
2023/04/29 05:44:49;;;;;;;20.13;18.63;;;12.30;99.90;;;;;;5063375;28;21194;-49
2023/04/29 05:47:14;;;;;;;21.00;19.40;;;12.40;99.90;;;;;;5060265;28;20423;-49
2023/04/29 06:36:19;;;;;;;20.23;18.70;;;13.90;99.90;;;;;;5018525;28;20519;-48
2023/04/29 06:38:44;;;;;;;20.83;19.03;;;14.00;99.90;;;;;;5020108;28;20504;-54
2023/04/29 06:41:10;;;;;;;20.17;18.67;;;14.10;99.90;;;;;;5021624;28;20181;-51
2023/04/29 06:43:36;;;;;;;21.17;19.27;;;14.20;99.90;;;;;;5024780;28;20620;-50
2023/04/29 06:46:02;;;;;;;19.80;18.27;;;14.40;99.90;;;;;;5021229;28;20198;-51
2023/04/29 06:48:27;;;;;;;20.40;18.70;;;14.60;99.90;;;;;;5018903;28;20201;-52
2023/04/29 06:50:54;;;;;;;21.10;19.40;;;14.80;99.90;;;;;;5022002;28;20261;-53
2023/04/29 06:53:21;;;;;;;19.60;18.10;;;14.90;99.90;;;;;;5021377;28;20664;-50
2023/04/29 06:55:46;;;;;;;21.60;19.80;;;15.10;99.90;;;;;;5001383;28;20472;-49
2023/04/29 06:58:15;;;;;;;19.90;18.30;;;15.20;99.90;;;;;;5017439;28;21864;-52
2023/04/29 07:00:49;;;;;;;19.37;17.77;;;15.20;99.90;;;;;;5023245;28;20183;-52
2023/04/29 07:03:16;;;;;;;19.93;18.43;;;15.30;99.90;;;;;;5002039;28;20433;-50
2023/04/29 07:05:44;;;;;;;19.20;17.80;;;15.20;99.90;;;;;;5019536;28;20450;-51
2023/04/29 07:08:11;;;;;;;21.53;19.83;;;15.20;99.90;;;;;;5018495;28;20423;-53
2023/04/29 07:10:37;;;;;;;21.03;19.43;;;15.10;99.90;;;;;;5028236;28;20517;-49
2023/04/29 07:13:03;;;;;;;20.70;19.00;;;15.00;99.90;;;;;;5019035;28;20437;-46
2023/04/29 07:15:32;;;;;;;20.63;19.03;;;15.00;99.90;;;;;;5023122;28;20459;-50
2023/04/29 07:17:59;;;;;;;21.40;19.60;;;14.90;99.90;;;;;;5021049;28;20409;-51
2023/04/29 07:20:25;;;;;;;21.03;19.33;;;14.90;99.90;;;;;;5020961;28;20421;-48
2023/04/29 07:22:50;;;;;;;20.13;18.47;;;14.90;99.90;;;;;;5019106;28;20421;-48
2023/04/29 07:25:16;;;;;;;21.93;20.13;;;14.90;99.90;;;;;;5018225;28;20186;-52
2023/04/29 07:27:41;;;;;;;21.40;19.67;;;14.90;99.90;;;;;;5015932;28;20190;-49
2023/04/29 07:30:08;;;;;;;21.37;19.67;;;14.80;99.90;;;;;;5021197;28;20182;-47
2023/04/29 07:32:33;;;;;;;21.00;19.17;;;14.80;99.90;;;;;;5018408;28;20266;-47
2023/04/29 07:34:59;;;;;;;24.40;22.30;;;14.70;99.90;;;;;;5031352;28;20472;-47
2023/04/29 07:37:25;;;;;;;23.27;21.37;;;14.60;99.90;;;;;;5043660;28;20186;-49
2023/04/29 07:39:51;;;;;;;21.87;20.20;;;14.40;99.90;;;;;;5042247;28;20198;-50
2023/04/29 07:42:17;;;;;;;22.70;20.80;;;14.30;99.90;;;;;;5036792;28;20424;-48
2023/04/29 07:44:44;;;;;;;23.00;21.07;;;14.10;99.90;;;;;;5043902;28;20430;-51
2023/04/29 07:47:10;;;;;;;23.57;21.60;;;14.10;99.90;;;;;;5041436;28;20193;-50
2023/04/29 07:49:36;;;;;;;22.30;20.60;;;14.00;99.90;;;;;;5039408;28;20422;-48
2023/04/29 07:52:03;;;;;;;22.67;20.80;;;13.90;99.90;;;;;;5018473;28;20432;-51
2023/04/29 07:54:28;;;;;;;23.27;21.33;;;13.90;99.90;;;;;;5039098;28;20644;-51
2023/04/29 07:56:56;;;;;;;22.90;20.80;;;13.90;99.90;;;;;;5051088;28;20435;-53
2023/04/29 07:59:22;;;;;;;22.70;20.80;;;14.00;99.90;;;;;;5044689;28;21037;-51
2023/04/29 08:01:47;;;;;;;23.60;21.57;;;14.10;99.90;;;;;;5044478;28;20416;-47
2023/04/29 08:04:13;;;;;;;23.40;21.40;;;14.20;99.90;;;;;;5040156;28;20623;-47
2023/04/29 08:06:40;;;;;;;21.47;19.57;;;14.30;99.90;;;;;;5054632;28;20553;-50
2023/04/29 08:09:06;;;;;;;23.07;21.17;;;14.40;99.90;;;;;;5035431;28;20204;-48
2023/04/29 08:11:32;;;;;;;22.57;20.87;;;14.40;99.90;;;;;;5036750;28;20483;-48
2023/04/29 08:13:59;;;;;;;24.00;22.00;;;14.50;99.90;;;;;;5038066;28;20566;-51
2023/04/29 08:16:25;;;;;;;23.43;21.53;;;14.60;99.90;;;;;;5014045;28;20206;-50
2023/04/29 08:18:51;;;;;;;22.27;20.57;;;14.50;99.90;;;;;;5028153;28;20870;-48
2023/04/29 08:21:18;;;;;;;21.97;20.30;;;14.50;99.90;;;;;;5032039;28;20425;-47
2023/04/29 08:23:44;;;;;;;22.97;21.17;;;14.50;99.90;;;;;;5038892;28;20436;-48
2023/04/29 08:26:11;;;;;;;22.87;21.07;;;14.50;99.90;;;;;;5040626;28;21252;-50
2023/04/29 08:28:37;;;;;;;23.17;21.30;;;14.50;99.90;;;;;;5031020;28;20532;-51
2023/04/29 08:31:06;;;;;;;21.30;19.70;;;14.40;99.90;;;;;;5040226;28;20517;-48
2023/04/29 08:33:34;;;;;;;23.30;21.60;;;14.40;99.90;;;;;;5035834;28;20551;-49
2023/04/29 08:36:02;;;;;;;21.43;19.83;;;14.40;99.90;;;;;;5018144;28;20524;-51
2023/04/29 08:38:28;;;;;;;21.37;19.87;;;14.50;99.90;;;;;;5021188;28;20479;-51
2023/04/29 08:40:55;;;;;;;20.73;19.33;;;14.30;99.90;;;;;;5022410;28;20441;-52
2023/04/29 08:43:21;;;;;;;21.57;19.87;;;14.30;99.90;;;;;;5021077;28;20468;-52
2023/04/29 08:45:50;;;;;;;21.50;19.80;;;14.20;99.90;;;;;;5025282;28;20446;-53
2023/04/29 08:48:17;;;;;;;21.13;19.60;;;14.10;99.90;;;;;;5027805;28;20491;-46
2023/04/29 08:50:43;;;;;;;21.60;20.00;;;14.10;99.90;;;;;;5028361;28;20483;-52
2023/04/29 08:53:10;;;;;;;20.40;18.90;;;14.10;99.90;;;;;;5036922;28;20530;-51
2023/04/29 08:55:46;;;;;;;20.60;19.00;;;14.00;99.90;;;;;;5027566;28;20590;-51
2023/04/29 08:58:13;;;;;;;20.10;18.57;;;14.10;99.90;;;;;;5028171;28;20440;-51
2023/04/29 09:00:41;;;;;;;20.00;18.60;;;14.00;99.90;;;;;;5038760;28;20940;-50
2023/04/29 09:03:51;;;;;;;20.20;18.70;;;14.10;99.90;;;;;;5032771;28;20509;-51
2023/04/29 09:06:17;;;;;;;20.50;18.90;;;14.00;99.90;;;;;;5028297;28;20443;-51
2023/04/29 09:08:43;;;;;;;20.17;18.67;;;14.00;99.90;;;;;;5034462;28;20494;-49
2023/04/29 09:11:10;;;;;;;21.20;19.60;;;14.00;99.90;;;;;;5029339;28;20890;-48
2023/04/29 09:13:36;;;;;;;21.47;19.87;;;14.00;99.90;;;;;;5037691;28;20221;-50
2023/04/29 09:16:02;;;;;;;20.87;19.33;;;14.00;99.90;;;;;;5034552;28;20854;-49
2023/04/29 09:18:48;;;;;;;21.53;19.93;;;14.10;99.90;;;;;;5030186;28;20292;-49
2023/04/29 09:21:20;;;;;;;19.10;17.73;;;14.10;99.90;;;;;;5036810;28;20190;-49
2023/04/29 09:23:48;;;;;;;19.50;18.00;;;14.00;99.90;;;;;;5026848;28;20499;-50
2023/04/29 09:26:15;;;;;;;20.10;18.60;;;14.00;99.90;;;;;;5027100;28;20453;-48
2023/04/29 09:28:43;;;;;;;19.50;18.00;;;13.90;99.90;;;;;;4998233;28;21024;-52
2023/04/29 09:31:10;;;;;;;20.63;19.23;;;13.80;99.90;;;;;;5025882;28;20896;-54
2023/04/29 09:33:52;;;;;;;18.30;16.90;;;13.80;99.90;;;;;;5035601;28;20522;-48
2023/04/29 09:36:57;;;;;;;19.67;18.17;;;13.90;99.90;;;;;;5054626;28;20475;-50
2023/04/29 09:39:23;;;;;;;20.73;19.13;;;13.90;99.90;;;;;;4966851;28;20443;-49
2023/04/29 09:41:52;;;;;;;19.90;18.40;;;13.90;99.90;;;;;;5032576;28;20459;-52
2023/04/29 09:44:18;;;;;;;21.43;19.73;;;13.90;99.90;;;;;;5052020;28;20436;-52
2023/04/29 09:46:56;;;;;;;20.70;19.23;;;14.00;99.90;;;;;;5044475;28;20539;-54
2023/04/29 09:49:27;;;;;;;21.77;19.97;;;14.00;99.90;;;;;;5040597;28;20430;-49
2023/04/29 09:51:58;;;;;;;20.40;18.90;;;14.00;99.90;;;;;;5040465;28;20444;-54
2023/04/29 09:54:27;;;;;;;20.90;19.30;;;13.90;99.90;;;;;;5023205;28;20440;-49
2023/04/29 09:56:53;;;;;;;20.07;18.50;;;14.00;99.90;;;;;;5038537;28;20468;-52
2023/04/29 09:59:19;;;;;;;20.73;19.13;;;14.20;99.90;;;;;;5047990;28;20542;-48
2023/04/29 10:01:56;;;;;;;19.70;18.10;;;14.30;99.90;;;;;;5024617;28;20466;-53
2023/04/29 10:04:26;;;;;;;19.50;18.10;;;14.40;99.90;;;;;;5040300;28;20198;-52
2023/04/29 10:06:53;;;;;;;19.50;18.10;;;14.40;99.90;;;;;;5037114;28;20440;-52
2023/04/29 10:09:20;;;;;;;19.60;18.30;;;14.30;99.90;;;;;;5039026;28;20996;-52
2023/04/29 10:11:51;;;;;;;18.23;16.93;;;14.30;99.90;;;;;;5044307;28;20521;-53
2023/04/29 10:14:20;;;;;;;17.93;16.50;;;14.40;99.90;;;;;;5042742;28;20428;-53
2023/04/29 10:16:58;;;;;;;17.07;15.67;;;14.30;99.90;;;;;;5044630;28;20504;-51
2023/04/29 10:19:45;;;;;;;17.47;16.13;;;14.40;99.90;;;;;;5042066;28;20486;-53
2023/04/29 10:22:25;;;;;;;16.30;15.20;;;14.50;99.90;;;;;;5049440;28;20469;-52
2023/04/29 10:24:54;;;;;;;16.70;15.30;;;14.50;99.90;;;;;;5042565;28;20785;-50
2023/04/29 10:27:21;;;;;;;17.30;16.10;;;14.50;99.90;;;;;;5039305;28;21420;-53
2023/04/29 10:29:48;;;;;;;17.00;15.70;;;14.60;99.90;;;;;;5058125;28;20431;-50
2023/04/29 10:32:15;;;;;;;16.33;15.23;;;14.70;99.90;;;;;;5060906;28;20529;-49
2023/04/29 10:34:42;;;;;;;17.57;16.30;;;14.80;99.90;;;;;;5046470;28;20561;-52
2023/04/29 10:37:11;;;;;;;16.20;14.77;;;14.80;99.90;;;;;;5046993;28;20428;-49
2023/04/29 10:39:48;;;;;;;18.13;16.67;;;14.90;99.90;;;;;;5020531;28;20431;-51
2023/04/29 10:42:30;;;;;;;16.43;15.23;;;15.00;99.90;;;;;;5029871;28;20436;-49
2023/04/29 10:45:30;;;;;;;17.07;15.77;;;15.00;99.90;;;;;;5039902;28;20440;-49
2023/04/29 10:48:04;;;;;;;16.33;15.17;;;15.10;99.90;;;;;;5040557;28;20489;-52
2023/04/29 10:50:32;;;;;;;17.93;16.53;;;15.10;99.90;;;;;;5040501;28;20428;-52
2023/04/29 10:53:02;;;;;;;18.13;16.73;;;15.00;99.90;;;;;;5041049;28;20424;-51
2023/04/29 10:55:28;;;;;;;17.97;16.57;;;15.00;99.90;;;;;;5042915;28;20451;-50
2023/04/29 10:57:55;;;;;;;18.50;17.00;;;14.90;99.90;;;;;;5041139;28;20493;-53
2023/04/29 11:00:25;;;;;;;19.70;17.67;;;15.00;99.90;;;;;;5041647;28;20805;-50
2023/04/29 11:02:52;;;;;;;18.30;16.70;;;15.00;99.90;;;;;;5036353;28;20436;-52
2023/04/29 11:05:32;;;;;;;17.33;15.93;;;15.10;99.90;;;;;;5041807;28;20765;-53
2023/04/29 11:08:23;;;;;;;19.40;17.80;;;15.20;99.90;;;;;;5036261;28;20590;-50
2023/04/29 11:10:52;;;;;;;17.43;15.90;;;15.30;99.90;;;;;;5031905;28;20443;-50
2023/04/29 11:13:26;;;;;;;18.10;16.70;;;15.30;99.90;;;;;;5042693;28;20448;-51
2023/04/29 11:16:10;;;;;;;18.53;17.23;;;15.40;99.90;;;;;;5047876;28;20451;-49
2023/04/29 11:19:05;;;;;;;17.50;16.30;;;15.40;99.90;;;;;;5024056;28;20559;-49
2023/04/29 11:21:36;;;;;;;18.03;16.47;;;15.70;99.90;;;;;;5021607;28;20443;-49
2023/04/29 11:24:05;;;;;;;18.87;17.50;;;16.00;99.90;;;;;;5057421;28;20814;-47
2023/04/29 11:26:35;;;;;;;18.37;16.97;;;16.30;99.90;;;;;;5058641;28;20480;-47
2023/04/29 11:29:01;;;;;;;18.03;16.60;;;16.50;99.90;;;;;;5040168;28;20413;-48
2023/04/29 11:31:32;;;;;;;18.20;16.90;;;16.60;99.90;;;;;;5039183;28;21461;-53
2023/04/29 11:33:59;;;;;;;17.33;16.07;;;16.80;99.90;;;;;;5043402;28;20231;-52
2023/04/29 11:36:26;;;;;;;17.87;16.57;;;16.80;99.90;;;;;;5059742;28;20471;-50
2023/04/29 11:38:52;;;;;;;18.30;17.10;;;16.70;99.90;;;;;;5059191;28;20443;-47
2023/04/29 11:41:18;;;;;;;16.50;15.40;;;16.80;99.90;;;;;;5052205;28;20424;-52
2023/04/29 11:43:54;;;;;;;18.30;17.00;;;16.80;99.90;;;;;;5037354;28;20443;-49
2023/04/29 11:46:20;;;;;;;19.20;17.90;;;17.00;99.90;;;;;;5017879;28;20858;-54
2023/04/29 11:48:47;;;;;;;17.90;16.63;;;17.20;99.90;;;;;;5018767;28;20445;-53
2023/04/29 11:51:14;;;;;;;16.40;15.30;;;17.50;99.90;;;;;;5036698;28;20857;-54
2023/04/29 11:53:40;;;;;;;17.80;16.60;;;17.60;99.90;;;;;;5038761;28;20452;-53
2023/04/29 11:56:07;;;;;;;17.70;16.40;;;17.50;99.90;;;;;;5023232;28;20471;-52
2023/04/29 11:58:33;;;;;;;16.10;15.10;;;17.80;99.90;;;;;;5044938;28;20590;-53
2023/04/29 12:00:59;;;;;;;17.07;15.97;;;17.80;99.90;;;;;;5037095;28;21087;-51
2023/04/29 12:03:25;;;;;;;17.70;16.40;;;18.00;99.90;;;;;;5042952;28;20428;-51
2023/04/29 12:05:55;;;;;;;16.47;15.30;;;17.90;99.90;;;;;;5056824;28;20442;-54
2023/04/29 12:08:20;;;;;;;17.17;15.57;;;17.50;99.90;;;;;;5039491;28;20236;-54
2023/04/29 12:10:47;;;;;;;16.07;15.07;;;17.40;99.90;;;;;;5045264;28;20928;-52
2023/04/29 12:13:13;;;;;;;16.37;15.37;;;17.30;99.90;;;;;;5040549;28;20412;-56
2023/04/29 12:15:39;;;;;;;15.57;14.57;;;17.20;99.90;;;;;;5019202;28;20475;-48
2023/04/29 12:18:05;;;;;;;16.20;15.20;;;17.10;99.90;;;;;;5040384;28;20882;-50
2023/04/29 12:20:31;;;;;;;15.00;14.00;;;17.10;99.90;;;;;;5039682;28;20432;-49
2023/04/29 12:23:21;;;;;;;16.27;15.20;;;17.00;99.90;;;;;;5041697;28;20201;-52
2023/04/29 12:25:58;;;;;;;15.10;14.20;;;16.70;99.90;;;;;;5039140;28;21094;-49
2023/04/29 12:28:24;;;;;;;15.60;14.53;;;16.40;99.90;;;;;;5040343;28;20420;-51
2023/04/29 12:30:53;;;;;;;15.10;14.20;;;16.40;99.90;;;;;;5040121;28;20436;-51
2023/04/29 12:33:22;;;;;;;17.13;16.10;;;16.20;99.90;;;;;;5040256;28;20424;-51
2023/04/29 12:35:52;;;;;;;16.77;15.67;;;16.00;99.90;;;;;;5027184;28;20487;-54
2023/04/29 12:38:28;;;;;;;18.30;17.07;;;15.90;99.90;;;;;;5024339;28;20938;-46
2023/04/29 12:40:55;;;;;;;18.80;17.50;;;16.00;99.90;;;;;;5023765;28;20436;-50
2023/04/29 12:43:28;;;;;;;18.70;17.40;;;15.80;99.90;;;;;;5032443;28;20448;-53
2023/04/29 12:45:59;;;;;;;18.60;17.30;;;15.80;99.90;;;;;;5038999;28;20412;-48
2023/04/29 12:48:30;;;;;;;18.83;17.43;;;15.70;99.90;;;;;;5034911;28;20786;-52
2023/04/29 12:50:58;;;;;;;18.57;17.27;;;15.40;99.90;;;;;;5024174;28;20456;-53
2023/04/29 12:53:25;;;;;;;19.40;18.10;;;15.30;99.90;;;;;;5020739;28;20911;-53
2023/04/29 12:55:51;;;;;;;18.13;16.83;;;15.20;99.90;;;;;;5038284;28;20466;-49
2023/04/29 12:58:16;;;;;;;17.90;16.70;;;15.20;99.90;;;;;;5038915;28;20474;-45
2023/04/29 13:00:42;;;;;;;16.20;15.10;;;15.10;99.90;;;;;;5026806;28;20436;-48
2023/04/29 13:03:08;;;;;;;17.33;16.03;;;15.10;99.90;;;;;;5021416;28;20257;-51
2023/04/29 13:05:34;;;;;;;17.43;16.23;;;15.10;99.90;;;;;;5018669;28;20269;-52
2023/04/29 13:08:00;;;;;;;17.97;16.67;;;15.00;99.90;;;;;;5024182;28;20668;-49
2023/04/29 13:10:27;;;;;;;18.37;17.17;;;14.90;99.90;;;;;;5029446;28;20416;-51
2023/04/29 13:12:53;;;;;;;17.30;16.13;;;14.90;99.90;;;;;;5028647;28;20498;-52
2023/04/29 13:15:20;;;;;;;17.23;16.03;;;14.70;99.90;;;;;;5024484;28;21073;-51
2023/04/29 13:17:46;;;;;;;17.67;16.47;;;14.80;99.90;;;;;;5028679;28;20447;-51
2023/04/29 13:20:12;;;;;;;18.43;17.13;;;14.80;99.90;;;;;;5030604;28;20485;-52